METAR AND TAF INFORMATION
METAR FOR EGSH
ADDS - METARS form results

(2106 UTC 03 August 2021)
Data provider http://aviationweather.gov/metar/data/
 
METAR text: EGSH 032050Z AUTO 12005KT 9999 NCD 12/10 Q1014
Conditions at: EGSH (NORWICH WEA CNTR, GB) observed 2050 UTC 03 August 2021
Temperature: 12.0°C (54°F)
Dewpoint: 10.0°C (50°F) [RH = 88%]
Pressure (altimeter): 29.94 inches Hg (1014.0 mb)
Winds: from the ESE (120 degrees) at 6 MPH (5 knots; 2.6 m/s)
Visibility: 6 or more miles (10+ km)
Ceiling: at least 12,000 feet AGL
Clouds: sky clear below 12,000 feet AGL
Weather: no significant weather observed at this time

METAR text: EGSH 032020Z AUTO 14004KT 9999 NCD 13/11 Q1014
Conditions at: EGSH (NORWICH WEA CNTR, GB) observed 2020 UTC 03 August 2021
Temperature: 13.0°C (55°F)
Dewpoint: 11.0°C (52°F) [RH = 88%]
Pressure (altimeter): 29.94 inches Hg (1014.0 mb)
Winds: from the SE (140 degrees) at 5 MPH (4 knots; 2.1 m/s)
Visibility: 6 or more miles (10+ km)
Ceiling: at least 12,000 feet AGL
Clouds: sky clear below 12,000 feet AGL
Weather: no significant weather observed at this time

Forecast for: EGSH (NORWICH WEA CNTR, GB)
Text: TAF EGSH 031956Z 0321/0406 14004KT 9999 FEW030
Forecast period: 2100 UTC 03 August 2021 to 0600 UTC 04 August 2021
Forecast type: FROM: standard forecast or significant change
Winds: from the SE (140 degrees) at 5 MPH (4 knots; 2.1 m/s)
Visibility: 6 or more miles (10+ km)
Ceiling: at least 12,000 feet AGL
Clouds: few clouds at 3000 feet AGL
Weather: no significant weather forecast for this period
Text: PROB30 0402/0406 8000
Forecast period: 0200 to 0600 UTC 04 August 2021
Forecast type: PROBABLE: 30 percent likelihood of the following during this time
Visibility: 5 miles (8 km)
Ceiling: unknown
Clouds: missing
Weather: no significant weather forecast for this period

 AIRPORT MAP

 RUNWAY INFORMATION
Runway 04 Runway length 4154 ft Runway width 148 ft
Runway elevation 107 ft Runway displaced threshold 0 ft Runway heading 37
Runway 22 Runway length 4154 ft Runway width 148 ft
Runway elevation 101 ft Runway displaced threshold 0 ft Runway heading 217
Runway 09 Runway length 6040 ft Runway width 148 ft
Runway elevation 117 ft Runway displaced threshold 0 ft Runway heading 90
Runway 27 Runway length 6040 ft Runway width 148 ft
Runway elevation 106 ft Runway displaced threshold 0 ft Runway heading 270

 AIRPORT FREQUENCIES
Type APP Name APP Frequency 119.35 MHZ
Type ATIS Name ATIS Frequency 128.625 MHZ
Type TWR Name TWR Frequency 124.25 MHZ
Type RDR Name Director Frequency 128.325 MHZ

 AIRPORT NEAR NAVIGATION AIDS





Powered by Virtual Airlines Manager

Maps by Rafael Santos